Time;durP1;ratioP1;P1;durP2;ratioP2;P2;SDS_P1;SDS_P2;PMS_P1;PMS_P2;Temp;Humidity;BMP_temperature;BMP_pressure;BME280_temperature;BME280_humidity;BME280_pressure;Samples;Min_cycle;Max_cycle;Signal;HPM_P1;HPM_P2
2021/09/14 00:59:25;;;;;;;5.07;2.67;;;;;;;18.50;70.17;99705.13;1090624;39;20627;-79
2021/09/14 01:00:26;;;;;;;4.97;2.67;;;;;;;18.59;69.78;99700.34;1087849;54;21014;-78
2021/09/14 01:01:30;;;;;;;5.05;3.00;;;;;;;18.61;69.75;99693.69;1087725;54;20026;-76
2021/09/14 01:02:32;;;;;;;6.15;2.95;;;;;;;18.67;69.63;99698.28;1087791;54;20069;-76
2021/09/14 01:03:36;;;;;;;5.03;3.00;;;;;;;18.75;69.86;99699.13;1087777;54;20038;-78
2021/09/14 01:04:38;;;;;;;5.38;3.05;;;;;;;18.79;69.72;99694.94;1087795;54;20046;-76
2021/09/14 01:05:42;;;;;;;6.38;3.40;;;;;;;18.79;69.62;99701.22;1087800;54;20030;-78
2021/09/14 01:06:44;;;;;;;5.35;3.15;;;;;;;18.77;69.61;99695.16;1088163;39;20539;-77
2021/09/14 01:07:49;;;;;;;6.65;3.80;;;;;;;18.72;70.10;99700.34;1087692;54;20060;-78
2021/09/14 01:08:52;;;;;;;8.55;3.72;;;;;;;18.73;69.82;99695.78;1087552;54;20034;-77
2021/09/14 01:09:56;;;;;;;8.68;3.60;;;;;;;18.67;70.16;99697.44;1087782;54;20034;-77
2021/09/14 01:10:59;;;;;;;5.60;4.03;;;;;;;18.62;70.67;99706.19;1088716;39;20483;-77
2021/09/14 01:12:04;;;;;;;5.82;4.10;;;;;;;18.53;70.53;99696.59;1087669;54;20030;-76
2021/09/14 01:13:05;;;;;;;7.80;4.30;;;;;;;18.41;71.50;99699.06;1087784;54;20046;-77
2021/09/14 01:14:11;;;;;;;7.57;4.45;;;;;;;18.34;71.64;99698.22;1087710;54;20730;-77
2021/09/14 01:15:16;;;;;;;8.45;4.15;;;;;;;18.36;71.72;99701.53;1087678;54;20058;-76
2021/09/14 01:16:20;;;;;;;8.00;4.47;;;;;;;18.33;71.49;99696.53;1090795;39;20629;-77
2021/09/14 01:17:21;;;;;;;6.15;4.38;;;;;;;18.20;72.11;99695.47;1087752;54;20034;-78
2021/09/14 01:18:26;;;;;;;6.03;4.00;;;;;;;18.31;71.98;99704.88;1087736;54;20035;-79
2021/09/14 01:19:30;;;;;;;6.95;3.75;;;;;;;18.35;71.77;99699.88;1087808;54;20065;-77
2021/09/14 01:20:32;;;;;;;6.47;4.20;;;;;;;18.35;71.58;99703.44;1087748;54;20785;-78
2021/09/14 01:21:37;;;;;;;5.30;3.65;;;;;;;18.25;71.64;99697.56;1089366;39;20484;-77
2021/09/14 01:22:41;;;;;;;5.70;3.88;;;;;;;18.23;71.96;99697.75;1087860;54;20576;-78
2021/09/14 01:23:45;;;;;;;6.50;3.85;;;;;;;18.17;72.16;99692.34;1087686;54;20030;-78
2021/09/14 01:24:47;;;;;;;8.02;4.35;;;;;;;18.20;71.78;99703.59;1087818;54;20038;-77
2021/09/14 01:25:51;;;;;;;7.63;4.30;;;;;;;18.17;72.06;99709.41;1087401;54;20035;-78
2021/09/14 01:26:52;;;;;;;6.00;4.40;;;;;;;18.09;71.96;99696.88;1087538;54;20046;-77
2021/09/14 01:28:03;;;;;;;6.57;4.43;;;;;;;18.01;72.44;99697.06;1087421;54;20045;-78
2021/09/14 01:29:09;;;;;;;7.30;4.43;;;;;;;18.02;72.27;99701.44;1087407;54;20675;-77
2021/09/14 01:30:12;;;;;;;7.15;4.10;;;;;;;18.05;72.03;99689.38;1087494;54;20042;-77
2021/09/14 01:31:17;;;;;;;7.05;4.75;;;;;;;18.07;72.11;99698.97;1092179;39;20552;-78
2021/09/14 01:32:18;;;;;;;6.60;4.30;;;;;;;18.13;71.63;99691.06;1087534;54;20030;-78
2021/09/14 01:33:22;;;;;;;6.47;3.70;;;;;;;18.11;71.73;99691.28;1087799;54;20041;-77
2021/09/14 01:34:24;;;;;;;10.07;5.03;;;;;;;18.15;71.62;99689.81;1087881;54;20038;-79
2021/09/14 01:35:30;;;;;;;7.75;4.40;;;;;;;18.17;71.37;99703.16;1087692;54;20030;-76
2021/09/14 01:36:32;;;;;;;6.97;4.22;;;;;;;18.17;71.59;99698.59;1090293;31;20572;-77
2021/09/14 01:37:36;;;;;;;6.47;3.85;;;;;;;18.21;71.52;99694.44;1087557;54;20073;-76
2021/09/14 01:38:41;;;;;;;5.32;3.90;;;;;;;18.22;71.43;99704.22;1087717;54;20030;-77
2021/09/14 01:39:45;;;;;;;5.45;3.63;;;;;;;18.26;70.96;99692.97;1090388;39;20634;-76
2021/09/14 01:40:49;;;;;;;6.40;3.60;;;;;;;18.31;71.06;99695.94;1087701;54;20035;-77
2021/09/14 01:41:51;;;;;;;6.10;4.07;;;;;;;18.25;70.97;99694.88;1087719;54;20966;-76
2021/09/14 01:42:55;;;;;;;5.75;3.67;;;;;;;18.23;71.35;99695.06;1087716;54;20030;-77
2021/09/14 01:43:57;;;;;;;5.75;4.05;;;;;;;18.22;71.04;99701.53;1087576;54;20049;-77
2021/09/14 01:45:01;;;;;;;6.00;4.32;;;;;;;18.27;70.95;99698.22;1087711;54;20041;-76
2021/09/14 01:46:06;;;;;;;8.65;4.32;;;;;;;18.22;71.16;99696.13;1087655;54;21022;-76
2021/09/14 01:47:07;;;;;;;5.88;4.43;;;;;;;18.20;71.50;99698.19;1087692;54;20018;-77
2021/09/14 01:48:11;;;;;;;5.38;3.90;;;;;;;18.24;71.19;99698.59;1088063;39;20433;-77
2021/09/14 01:49:13;;;;;;;6.22;3.58;;;;;;;18.23;70.95;99703.16;1088676;46;20033;-78
2021/09/14 01:50:18;;;;;;;5.32;3.40;;;;;;;18.27;70.83;99700.06;1087799;54;20034;-78
2021/09/14 01:51:19;;;;;;;7.25;4.47;;;;;;;18.15;71.17;99695.25;1087894;46;20577;-77
2021/09/14 01:52:26;;;;;;;8.15;3.80;;;;;;;18.13;71.60;99707.31;1087780;54;20077;-77
2021/09/14 01:53:35;;;;;;;7.20;4.40;;;;;;;17.97;71.96;99711.19;1087884;54;20091;-78
2021/09/14 01:54:42;;;;;;;5.78;4.10;;;;;;;17.93;71.97;99708.03;1088288;54;20035;-77
2021/09/14 01:55:45;;;;;;;6.57;4.28;;;;;;;17.96;72.14;99706.78;1089112;46;20014;-77
2021/09/14 01:56:49;;;;;;;5.35;4.20;;;;;;;17.95;71.94;99697.84;1088557;46;20034;-77
2021/09/14 01:57:54;;;;;;;6.18;4.65;;;;;;;17.84;72.06;99701.13;1087990;54;20033;-77
2021/09/14 01:58:55;;;;;;;7.57;4.55;;;;;;;17.66;73.06;99707.91;1088337;46;20030;-78
2021/09/14 02:00:01;;;;;;;6.00;4.43;;;;;;;17.66;73.37;99707.06;1087869;46;20088;-78
2021/09/14 02:01:12;;;;;;;7.63;4.38;;;;;;;17.65;73.12;99706.22;1087656;54;20065;-78
2021/09/14 02:02:18;;;;;;;6.85;4.70;;;;;;;17.56;73.64;99710.13;1088163;46;20034;-78
2021/09/14 02:03:31;;;;;;;5.95;4.15;;;;;;;17.59;73.42;99710.56;1087780;54;20043;-78
2021/09/14 02:04:39;;;;;;;6.28;4.20;;;;;;;17.60;73.38;99706.81;1087758;54;20032;-77
2021/09/14 02:07:15;;;;;;;7.38;4.45;;;;;;;17.54;73.65;99706.78;1087366;54;20037;-78
2021/09/14 02:24:23;;;;;;;8.30;4.63;;;;;;;17.38;73.97;99700.66;1087250;54;20890;-77
2021/09/14 02:38:37;;;;;;;8.45;4.95;;;;;;;17.19;74.81;99691.41;1087280;54;20035;-78
2021/09/14 02:41:22;;;;;;;6.35;4.30;;;;;;;17.31;73.94;99684.41;1087228;54;20670;-77
2021/09/14 02:42:40;;;;;;;5.60;4.13;;;;;;;17.48;73.57;99678.69;1087294;54;20031;-77
2021/09/14 02:44:01;;;;;;;5.30;4.07;;;;;;;17.58;73.03;99681.03;1087355;54;20030;-77
2021/09/14 02:56:57;;;;;;;8.07;4.90;;;;;;;17.12;74.63;99685.09;1087695;54;20039;-78
2021/09/14 02:59:18;;;;;;;6.32;4.38;;;;;;;17.19;74.46;99677.91;1087542;54;20061;-78
2021/09/14 03:00:22;;;;;;;6.05;4.55;;;;;;;17.14;74.59;99678.47;1087328;54;20928;-77
2021/09/14 03:01:24;;;;;;;6.45;4.32;;;;;;;17.10;74.66;99679.91;1087676;54;20041;-78
2021/09/14 03:02:28;;;;;;;8.90;5.10;;;;;;;17.07;74.95;99679.47;1087621;54;20114;-78
2021/09/14 03:03:29;;;;;;;7.45;4.40;;;;;;;17.06;74.77;99680.50;1087402;54;20050;-77
2021/09/14 03:04:34;;;;;;;6.18;4.80;;;;;;;17.07;75.01;99682.16;1089316;47;20042;-79
2021/09/14 03:05:35;;;;;;;6.63;4.55;;;;;;;16.96;75.32;99681.69;1087597;54;20039;-78
2021/09/14 03:06:39;;;;;;;7.03;4.25;;;;;;;16.95;75.17;99680.00;1087667;54;20030;-78
2021/09/14 03:07:41;;;;;;;6.63;4.45;;;;;;;16.96;75.26;99695.16;1087565;54;20018;-79
2021/09/14 03:08:46;;;;;;;5.93;4.30;;;;;;;16.97;75.43;99688.75;1087575;54;20064;-78
2021/09/14 03:09:48;;;;;;;5.85;4.43;;;;;;;17.03;74.96;99678.19;1088986;39;20627;-78
2021/09/14 03:10:52;;;;;;;7.13;4.10;;;;;;;17.03;74.86;99678.19;1087469;54;20042;-78
2021/09/14 03:11:54;;;;;;;6.80;4.28;;;;;;;17.04;74.77;99679.84;1087564;54;20041;-79
2021/09/14 03:12:58;;;;;;;6.32;4.70;;;;;;;16.91;75.10;99688.66;1087681;54;20038;-78
2021/09/14 03:14:02;;;;;;;5.57;4.03;;;;;;;16.94;75.41;99689.13;1087547;54;20033;-78
2021/09/14 03:15:08;;;;;;;5.47;4.00;;;;;;;16.95;74.97;99680.00;1087333;54;20041;-77
2021/09/14 03:16:12;;;;;;;5.45;4.10;;;;;;;16.97;75.35;99686.03;1087651;54;20042;-79
2021/09/14 03:17:16;;;;;;;7.35;4.75;;;;;;;16.96;75.36;99681.69;1087553;54;20054;-78
2021/09/14 03:18:18;;;;;;;6.07;4.80;;;;;;;16.91;75.28;99686.78;1087479;54;20038;-78
2021/09/14 03:19:22;;;;;;;7.15;4.65;;;;;;;16.81;75.47;99691.69;1087539;54;20042;-77
2021/09/14 03:20:23;;;;;;;7.38;5.30;;;;;;;16.69;76.23;99691.38;1087495;54;20053;-77
2021/09/14 03:21:28;;;;;;;8.00;4.97;;;;;;;16.64;76.37;99688.44;1089052;39;20786;-78
2021/09/14 03:22:29;;;;;;;7.53;5.25;;;;;;;16.67;76.11;99688.88;1087503;54;20038;-79
2021/09/14 03:23:33;;;;;;;8.02;5.05;;;;;;;16.79;75.88;99685.66;1089564;39;20828;-78
2021/09/14 03:24:35;;;;;;;6.43;4.78;;;;;;;16.88;75.31;99680.94;1087526;54;20034;-78
2021/09/14 03:25:39;;;;;;;5.50;4.47;;;;;;;16.89;75.18;99680.75;1087493;54;20636;-76
2021/09/14 03:26:41;;;;;;;6.90;4.68;;;;;;;16.82;75.54;99687.94;1087376;54;20035;-78
2021/09/14 03:27:45;;;;;;;7.38;4.65;;;;;;;16.83;75.42;99684.22;1087328;54;20030;-78
2021/09/14 03:28:46;;;;;;;6.45;4.63;;;;;;;16.81;75.46;99683.59;1087478;54;20034;-79
2021/09/14 03:29:53;;;;;;;7.28;4.70;;;;;;;16.87;75.21;99674.72;1087568;54;20031;-78
2021/09/14 03:30:55;;;;;;;7.25;4.15;;;;;;;16.88;75.07;99679.09;1087323;54;20034;-79
2021/09/14 03:31:59;;;;;;;6.18;4.50;;;;;;;16.88;74.95;99680.94;1087353;54;20030;-77
2021/09/14 03:33:01;;;;;;;9.10;4.63;;;;;;;16.90;75.17;99673.47;1087486;54;20034;-78
2021/09/14 03:34:05;;;;;;;7.00;5.07;;;;;;;16.90;75.13;99673.47;1087335;54;20037;-78
2021/09/14 03:35:08;;;;;;;5.70;4.50;;;;;;;16.92;75.11;99674.13;1087424;54;20042;-77
2021/09/14 03:36:15;;;;;;;6.95;4.65;;;;;;;16.87;75.21;99666.63;1087483;54;20042;-77
2021/09/14 03:37:17;;;;;;;6.80;4.82;;;;;;;16.80;75.42;99676.53;1087398;54;20042;-77
2021/09/14 03:38:21;;;;;;;8.90;5.45;;;;;;;16.81;75.39;99681.72;1087509;47;20035;-76
2021/09/14 03:39:23;;;;;;;6.18;4.57;;;;;;;16.81;75.33;99683.59;1087357;54;20038;-78
2021/09/14 03:40:28;;;;;;;8.20;5.28;;;;;;;16.75;75.88;99682.50;1088184;46;20058;-77
2021/09/14 03:41:29;;;;;;;7.70;5.72;;;;;;;16.72;75.91;99684.78;1087509;54;20066;-79
2021/09/14 03:42:34;;;;;;;6.57;5.13;;;;;;;16.77;75.82;99676.91;1087445;54;20057;-77
2021/09/14 03:43:35;;;;;;;6.80;5.25;;;;;;;16.77;75.88;99679.63;1087362;54;20073;-77
2021/09/14 03:44:39;;;;;;;6.38;4.85;;;;;;;16.92;75.25;99674.13;1089002;46;20054;-78
2021/09/14 03:45:48;;;;;;;6.05;4.38;;;;;;;17.04;74.81;99669.06;1087384;54;20035;-77
2021/09/14 03:46:49;;;;;;;6.63;4.57;;;;;;;17.13;74.37;99666.03;1087351;54;20066;-77
2021/09/14 03:47:54;;;;;;;6.45;4.35;;;;;;;17.17;74.33;99673.72;1087832;54;20599;-77
2021/09/14 03:48:55;;;;;;;6.40;4.25;;;;;;;17.19;73.97;99679.75;1087820;54;20034;-77
2021/09/14 03:50:00;;;;;;;8.25;4.80;;;;;;;16.96;74.76;99683.53;1087897;54;20031;-78
2021/09/14 03:51:01;;;;;;;7.30;5.30;;;;;;;16.91;75.13;99680.56;1087721;54;20057;-76
2021/09/14 03:52:06;;;;;;;5.35;4.05;;;;;;;16.91;75.00;99683.25;1087721;54;20039;-77
2021/09/14 03:53:08;;;;;;;6.07;4.22;;;;;;;16.88;75.26;99679.09;1087896;54;20047;-78
2021/09/14 03:54:12;;;;;;;5.85;4.30;;;;;;;16.92;75.15;99688.44;1087676;54;20021;-77
2021/09/14 03:55:13;;;;;;;8.95;5.03;;;;;;;16.91;75.05;99681.38;1087484;54;20042;-78
2021/09/14 03:56:18;;;;;;;8.30;4.82;;;;;;;16.89;75.22;99680.75;1087757;54;20034;-78
2021/09/14 03:57:19;;;;;;;6.50;4.75;;;;;;;16.92;75.05;99683.06;1087778;54;20042;-78
2021/09/14 03:58:23;;;;;;;5.80;4.07;;;;;;;16.98;74.77;99678.78;1087739;54;20045;-78
2021/09/14 03:59:25;;;;;;;6.65;4.78;;;;;;;16.93;75.09;99681.19;1087815;54;20041;-78
2021/09/14 04:00:29;;;;;;;9.50;5.68;;;;;;;16.78;75.39;99674.00;1087794;54;20046;-78
2021/09/14 04:01:37;;;;;;;7.22;5.47;;;;;;;16.84;75.35;99677.78;1087664;54;20053;-78
2021/09/14 04:02:44;;;;;;;8.10;5.18;;;;;;;16.86;75.52;99680.31;1087830;54;20027;-78
2021/09/14 04:03:54;;;;;;;7.90;5.20;;;;;;;16.92;75.16;99676.81;1087786;54;20031;-77
2021/09/14 04:05:11;;;;;;;6.40;4.50;;;;;;;17.07;74.90;99674.88;1087954;54;20034;-78
2021/09/14 04:07:51;;;;;;;7.95;5.28;;;;;;;16.81;75.53;99675.50;1087375;54;20015;-78
2021/09/14 04:08:52;;;;;;;8.50;4.93;;;;;;;16.85;75.40;99676.78;1090368;39;20351;-78
2021/09/14 04:09:56;;;;;;;7.03;4.53;;;;;;;17.05;74.71;99681.53;1087855;54;20058;-78
2021/09/14 04:10:58;;;;;;;6.00;4.32;;;;;;;17.15;74.39;99671.22;1087703;54;20042;-78
2021/09/14 04:12:02;;;;;;;5.38;4.20;;;;;;;17.20;74.02;99667.94;1087897;54;20030;-78
2021/09/14 04:13:04;;;;;;;5.88;4.40;;;;;;;17.22;73.93;99664.00;1087974;54;20030;-78
2021/09/14 04:14:08;;;;;;;5.68;3.97;;;;;;;17.23;73.75;99672.94;1087814;46;20042;-79
2021/09/14 04:15:10;;;;;;;5.53;3.85;;;;;;;17.27;73.72;99672.34;1087875;54;20041;-78
2021/09/14 04:16:14;;;;;;;5.15;3.53;;;;;;;17.31;73.55;99667.38;1088078;54;20030;-79
2021/09/14 04:17:21;;;;;;;4.95;3.75;;;;;;;17.35;73.46;99670.50;1088093;54;20038;-77
2021/09/14 04:18:22;;;;;;;6.35;3.90;;;;;;;17.34;73.63;99676.94;1088141;54;20019;-77
2021/09/14 04:19:27;;;;;;;7.63;4.25;;;;;;;17.33;73.58;99669.88;1088122;54;20018;-76
2021/09/14 04:20:28;;;;;;;6.35;5.10;;;;;;;17.22;74.08;99668.56;1090082;46;20098;-77
2021/09/14 04:21:32;;;;;;;6.47;4.25;;;;;;;17.26;73.71;99667.97;1088051;54;20037;-75
2021/09/14 04:22:34;;;;;;;8.70;4.32;;;;;;;17.31;73.60;99667.38;1088143;46;20058;-77
2021/09/14 04:23:38;;;;;;;4.75;3.70;;;;;;;17.33;73.59;99675.28;1088119;54;20030;-76
2021/09/14 04:24:40;;;;;;;6.68;3.70;;;;;;;17.30;73.66;99679.22;1088627;46;20037;-77
2021/09/14 04:25:44;;;;;;;8.13;4.25;;;;;;;17.28;73.70;99679.41;1088278;39;20297;-78
2021/09/14 04:26:45;;;;;;;5.68;4.10;;;;;;;17.29;73.57;99681.06;1088035;54;20038;-77
2021/09/14 04:27:50;;;;;;;6.10;4.20;;;;;;;17.29;73.61;99672.97;1087931;54;20038;-77
2021/09/14 04:28:52;;;;;;;7.22;4.10;;;;;;;17.34;73.59;99682.34;1087548;54;20052;-77
2021/09/14 04:29:56;;;;;;;6.07;3.70;;;;;;;17.36;73.33;99680.28;1087780;54;20034;-76
2021/09/14 04:31:00;;;;;;;5.28;3.47;;;;;;;17.36;73.55;99677.59;1087747;54;20030;-77
2021/09/14 04:32:02;;;;;;;5.32;3.47;;;;;;;17.35;73.50;99679.44;1087783;54;20042;-77
2021/09/14 04:33:09;;;;;;;5.05;3.53;;;;;;;17.37;73.31;99676.56;1087884;54;20015;-78
2021/09/14 04:34:10;;;;;;;5.18;3.70;;;;;;;17.36;73.53;99688.41;1087795;54;20038;-78
2021/09/14 04:35:15;;;;;;;5.40;4.15;;;;;;;17.29;73.75;99686.47;1087813;54;20030;-76
2021/09/14 04:36:19;;;;;;;5.25;3.90;;;;;;;17.31;73.44;99689.81;1087779;54;20039;-77
2021/09/14 04:37:20;;;;;;;10.07;4.13;;;;;;;17.34;73.70;99682.34;1087812;54;20038;-78
2021/09/14 04:38:24;;;;;;;6.68;3.85;;;;;;;17.31;73.42;99681.72;1087775;54;20050;-77
2021/09/14 04:39:26;;;;;;;7.80;4.40;;;;;;;17.26;73.47;99681.47;1087768;54;20053;-78
2021/09/14 04:40:30;;;;;;;8.52;4.18;;;;;;;17.28;73.51;99679.41;1087648;54;20694;-77
2021/09/14 04:41:32;;;;;;;9.05;4.57;;;;;;;17.28;73.84;99681.28;1087807;54;20145;-78
2021/09/14 04:42:36;;;;;;;8.73;4.20;;;;;;;17.30;73.64;99684.63;1087733;54;20038;-78
2021/09/14 04:43:40;;;;;;;7.38;4.47;;;;;;;17.31;73.67;99683.59;1091217;39;20511;-78
2021/09/14 04:44:42;;;;;;;9.00;5.32;;;;;;;17.29;73.34;99678.38;1087907;54;20018;-77
2021/09/14 04:45:46;;;;;;;7.53;4.68;;;;;;;17.30;73.63;99680.03;1087756;54;20034;-78
2021/09/14 04:46:47;;;;;;;9.65;4.78;;;;;;;17.32;73.61;99682.56;1087811;54;20041;-79
2021/09/14 04:47:51;;;;;;;7.72;4.05;;;;;;;17.34;73.30;99677.78;1089355;39;20531;-78
2021/09/14 04:48:55;;;;;;;8.52;4.50;;;;;;;17.33;73.23;99675.28;1087725;54;20069;-77
2021/09/14 04:49:59;;;;;;;7.38;3.90;;;;;;;17.35;73.40;99682.16;1087762;54;20603;-79
2021/09/14 04:51:04;;;;;;;6.45;3.95;;;;;;;17.37;73.36;99680.09;1087824;54;20034;-78
2021/09/14 04:52:07;;;;;;;7.03;3.92;;;;;;;17.36;73.31;99691.09;1088612;39;20563;-78
2021/09/14 04:53:11;;;;;;;6.70;4.03;;;;;;;17.37;73.39;99687.38;1087703;54;20046;-78
2021/09/14 04:54:13;;;;;;;6.57;4.30;;;;;;;17.40;72.88;99689.66;1087823;54;20034;-78
2021/09/14 04:55:17;;;;;;;6.13;3.90;;;;;;;17.43;73.08;99691.97;1087888;47;20034;-77
2021/09/14 04:56:19;;;;;;;6.93;4.50;;;;;;;17.38;73.18;99686.34;1087703;54;20066;-78
2021/09/14 04:57:23;;;;;;;8.05;5.18;;;;;;;17.36;73.38;99685.69;1087646;54;20998;-78
2021/09/14 04:58:25;;;;;;;7.63;4.78;;;;;;;17.33;73.41;99680.69;1087379;54;20041;-78
2021/09/14 04:59:29;;;;;;;6.32;4.32;;;;;;;17.33;73.50;99676.13;1087793;54;20030;-79
2021/09/14 05:00:31;;;;;;;6.45;4.05;;;;;;;17.35;73.05;99679.44;1087776;54;20030;-77
2021/09/14 05:01:35;;;;;;;5.72;3.85;;;;;;;17.33;73.18;99684.22;1088184;39;20920;-78
2021/09/14 05:02:36;;;;;;;8.40;4.88;;;;;;;17.29;73.36;99672.97;1087786;46;20034;-76
2021/09/14 05:03:41;;;;;;;8.75;5.03;;;;;;;17.27;73.29;99672.34;1087683;54;20034;-78
2021/09/14 05:04:45;;;;;;;6.18;4.68;;;;;;;17.20;73.49;99671.44;1087750;54;20034;-78
2021/09/14 05:05:50;;;;;;;6.57;4.57;;;;;;;17.23;73.63;99673.75;1087825;54;20034;-78
2021/09/14 05:06:51;;;;;;;7.43;4.68;;;;;;;17.22;73.44;99669.38;1087626;54;20090;-78
2021/09/14 05:07:55;;;;;;;8.13;4.60;;;;;;;17.22;73.47;99672.09;1087695;54;20038;-78
2021/09/14 05:08:57;;;;;;;7.07;5.43;;;;;;;17.12;73.66;99660.81;1087722;54;20104;-78
2021/09/14 05:10:01;;;;;;;7.20;5.10;;;;;;;17.14;73.61;99666.84;1087728;54;20580;-78
2021/09/14 05:11:05;;;;;;;7.82;4.80;;;;;;;17.09;73.95;99669.31;1087687;54;20034;-78
2021/09/14 05:12:10;;;;;;;8.23;5.43;;;;;;;17.13;73.79;99674.13;1087699;54;20070;-78
2021/09/14 05:13:11;;;;;;;6.63;4.82;;;;;;;17.14;73.89;99678.47;1087784;54;20049;-78
2021/09/14 05:14:15;;;;;;;6.78;4.40;;;;;;;17.18;73.71;99675.38;1087587;54;20030;-77
2021/09/14 05:15:17;;;;;;;7.13;5.18;;;;;;;17.19;73.67;99674.34;1087653;54;20038;-78
2021/09/14 05:16:21;;;;;;;7.40;4.95;;;;;;;17.20;73.78;99674.16;1087691;54;20082;-78
2021/09/14 05:17:29;;;;;;;6.50;4.55;;;;;;;17.18;73.45;99678.94;1088103;54;20031;-77
2021/09/14 05:18:33;;;;;;;6.72;4.43;;;;;;;17.27;73.67;99682.31;1088575;46;20380;-79
2021/09/14 05:19:37;;;;;;;7.68;4.60;;;;;;;17.30;73.46;99680.03;1088080;54;20455;-78
2021/09/14 05:20:45;;;;;;;6.82;4.88;;;;;;;17.30;73.50;99682.72;1088507;46;20035;-78
2021/09/14 05:21:47;;;;;;;10.00;5.13;;;;;;;17.21;73.54;99673.13;1087823;54;20045;-79
2021/09/14 05:23:00;;;;;;;8.65;5.78;;;;;;;17.20;73.57;99671.44;1087656;54;20030;-78
2021/09/14 05:24:01;;;;;;;6.93;4.50;;;;;;;17.24;73.54;99675.44;1087650;54;20031;-77
2021/09/14 05:25:06;;;;;;;7.82;5.20;;;;;;;17.29;73.28;99674.84;1087729;54;20030;-78
2021/09/14 05:26:11;;;;;;;6.82;4.28;;;;;;;17.26;73.33;99676.06;1087389;54;20034;-78
2021/09/14 05:27:13;;;;;;;5.90;4.85;;;;;;;17.20;73.90;99678.72;1087488;54;20042;-78
2021/09/14 05:28:18;;;;;;;9.32;4.88;;;;;;;17.22;73.63;99674.78;1087510;54;20049;-78
2021/09/14 05:29:19;;;;;;;7.35;5.47;;;;;;;17.24;73.68;99670.03;1087545;54;20032;-77
2021/09/14 05:30:24;;;;;;;8.25;5.20;;;;;;;17.27;73.63;99671.50;1087597;54;20041;-78
2021/09/14 05:31:25;;;;;;;7.70;5.15;;;;;;;17.27;73.64;99672.34;1087723;54;20049;-76
2021/09/14 05:32:30;;;;;;;5.72;4.60;;;;;;;17.29;73.34;99677.53;1087494;54;20039;-78
2021/09/14 05:33:33;;;;;;;10.32;5.65;;;;;;;17.30;73.24;99666.53;1087652;54;20035;-78
2021/09/14 05:34:37;;;;;;;8.85;5.10;;;;;;;17.30;73.41;99663.81;1087617;54;20061;-78
2021/09/14 05:35:46;;;;;;;12.20;5.10;;;;;;;17.27;73.34;99677.75;1090662;39;20360;-78
2021/09/14 05:36:48;;;;;;;10.52;5.70;;;;;;;17.28;73.57;99674.03;1087387;54;20057;-78
2021/09/14 05:37:54;;;;;;;10.82;5.10;;;;;;;17.29;73.48;99675.66;1087439;54;20054;-79
2021/09/14 05:38:56;;;;;;;8.75;5.03;;;;;;;17.35;73.20;99681.31;1087520;54;20038;-78
2021/09/14 05:40:00;;;;;;;11.13;4.80;;;;;;;17.39;73.23;99686.13;1087622;54;20042;-79
2021/09/14 05:41:04;;;;;;;10.63;5.03;;;;;;;17.41;73.28;99683.22;1087692;54;20038;-78
2021/09/14 05:42:07;;;;;;;11.50;5.90;;;;;;;17.37;73.17;99690.06;1088389;39;20473;-79
2021/09/14 05:43:11;;;;;;;10.45;5.80;;;;;;;17.35;73.27;99686.72;1087828;54;20118;-78
2021/09/14 05:44:16;;;;;;;14.30;5.45;;;;;;;17.33;73.41;99686.09;1087773;54;20029;-78
2021/09/14 05:45:17;;;;;;;9.07;5.50;;;;;;;17.30;73.18;99682.72;1087840;54;20636;-78
2021/09/14 05:46:22;;;;;;;8.73;5.05;;;;;;;17.34;73.11;99685.06;1087714;54;20034;-79
2021/09/14 05:47:23;;;;;;;8.25;5.00;;;;;;;17.38;73.24;99680.94;1087720;54;20038;-78
2021/09/14 05:48:27;;;;;;;8.35;4.85;;;;;;;17.43;73.21;99686.56;1087722;54;20030;-78
2021/09/14 05:49:29;;;;;;;8.05;4.88;;;;;;;17.44;73.00;99691.75;1087532;54;20042;-78
2021/09/14 05:50:33;;;;;;;6.90;4.47;;;;;;;17.42;72.97;99687.59;1089365;46;20042;-79
2021/09/14 05:51:40;;;;;;;7.93;5.03;;;;;;;17.41;72.85;99689.47;1087737;54;20038;-77
2021/09/14 05:52:42;;;;;;;11.07;5.57;;;;;;;17.41;73.04;99688.63;1087760;54;20046;-78
2021/09/14 05:53:47;;;;;;;11.02;6.03;;;;;;;17.46;72.65;99691.59;1087626;54;20030;-79
2021/09/14 05:54:51;;;;;;;10.77;5.75;;;;;;;17.45;72.72;99700.72;1087687;54;20607;-77
2021/09/14 05:55:52;;;;;;;12.88;5.65;;;;;;;17.47;72.59;99695.97;1087647;54;20031;-78
2021/09/14 05:56:57;;;;;;;11.77;5.70;;;;;;;17.50;72.52;99692.84;1087453;54;20329;-77
2021/09/14 05:57:59;;;;;;;7.05;4.75;;;;;;;17.53;72.45;99689.75;1087744;54;20061;-80
2021/09/14 05:59:03;;;;;;;9.07;4.97;;;;;;;17.54;72.59;99696.81;1087803;54;20033;-80
2021/09/14 06:00:06;;;;;;;12.85;5.63;;;;;;;17.54;72.15;99694.13;1087516;54;20041;-79
2021/09/14 06:01:10;;;;;;;7.88;4.90;;;;;;;17.60;72.37;99704.13;1087362;54;20015;-79
2021/09/14 06:02:12;;;;;;;9.63;5.55;;;;;;;17.61;72.03;99699.56;1087728;54;20033;-78
2021/09/14 06:03:16;;;;;;;7.90;4.93;;;;;;;17.67;72.11;99706.03;1087828;54;20034;-78
2021/09/14 06:04:20;;;;;;;10.00;4.75;;;;;;;17.69;72.18;99709.38;1087688;54;20049;-79
2021/09/14 06:05:22;;;;;;;7.75;4.35;;;;;;;17.69;72.14;99706.66;1087663;54;20030;-79
2021/09/14 06:06:26;;;;;;;11.13;6.03;;;;;;;17.53;72.32;99708.66;1087641;54;20018;-78
2021/09/14 06:07:30;;;;;;;10.32;5.72;;;;;;;17.60;72.36;99709.53;1087627;54;20034;-78
2021/09/14 06:08:34;;;;;;;8.93;5.63;;;;;;;17.69;71.86;99706.66;1087636;54;20041;-79
2021/09/14 06:09:42;;;;;;;8.13;5.32;;;;;;;17.68;71.41;99710.38;1087646;54;20026;-79
2021/09/14 06:10:47;;;;;;;13.60;6.63;;;;;;;17.73;72.05;99705.25;1087780;54;20046;-80
2021/09/14 06:11:54;;;;;;;13.18;6.65;;;;;;;17.73;71.84;99707.94;1087674;54;20937;-79
2021/09/14 06:12:56;;;;;;;12.95;6.93;;;;;;;17.81;71.77;99705.06;1087631;54;20019;-77
2021/09/14 06:14:00;;;;;;;15.27;7.13;;;;;;;17.85;71.38;99700.94;1087860;54;20034;-78
2021/09/14 06:15:02;;;;;;;12.60;6.95;;;;;;;17.85;71.61;99706.34;1087528;54;20039;-78
2021/09/14 06:16:07;;;;;;;12.48;6.95;;;;;;;17.88;71.27;99705.09;1087382;54;20058;-79
2021/09/14 06:17:10;;;;;;;16.27;6.35;;;;;;;17.91;71.28;99710.94;1087893;39;20561;-78
2021/09/14 06:18:14;;;;;;;17.38;8.70;;;;;;;17.63;72.23;99716.41;1087661;54;20057;-78
2021/09/14 06:19:17;;;;;;;18.50;9.48;;;;;;;17.61;72.51;99722.00;1087667;54;20049;-77
2021/09/14 06:20:21;;;;;;;16.50;8.63;;;;;;;17.75;72.02;99717.50;1087533;54;20033;-79
2021/09/14 06:21:25;;;;;;;14.23;8.15;;;;;;;17.83;71.77;99718.38;1087444;54;20174;-78
2021/09/14 06:22:27;;;;;;;19.58;9.13;;;;;;;17.71;72.08;99720.81;1087513;54;20037;-79
2021/09/14 06:23:34;;;;;;;23.38;10.43;;;;;;;17.53;72.66;99722.16;1087669;54;20015;-78
2021/09/14 06:24:36;;;;;;;18.73;9.68;;;;;;;17.70;72.24;99719.16;1087763;54;20034;-79
2021/09/14 06:25:40;;;;;;;20.60;9.13;;;;;;;17.77;71.73;99711.91;1087727;54;20035;-79
2021/09/14 06:26:44;;;;;;;12.73;8.02;;;;;;;17.85;71.82;99709.06;1087628;54;20031;-78
2021/09/14 06:27:46;;;;;;;16.00;8.35;;;;;;;17.88;71.50;99715.91;1087589;54;20784;-78
2021/09/14 06:28:50;;;;;;;15.60;8.93;;;;;;;17.93;71.33;99708.03;1087762;54;20679;-80
2021/09/14 06:29:51;;;;;;;15.88;9.57;;;;;;;17.98;71.14;99712.84;1087509;54;20041;-77
2021/09/14 06:30:56;;;;;;;15.25;9.68;;;;;;;18.03;71.14;99705.81;1089469;39;20537;-77
2021/09/14 06:31:57;;;;;;;13.52;8.18;;;;;;;18.06;71.14;99712.69;1088512;39;20387;-78
2021/09/14 06:33:01;;;;;;;13.75;8.25;;;;;;;18.11;70.79;99704.81;1087604;54;20054;-77
2021/09/14 06:34:05;;;;;;;16.88;7.50;;;;;;;18.16;70.63;99707.72;1087740;47;20026;-78
2021/09/14 06:35:08;;;;;;;14.82;7.93;;;;;;;18.18;70.64;99704.84;1087452;54;20053;-77
2021/09/14 06:36:13;;;;;;;11.65;7.43;;;;;;;18.18;70.61;99700.25;1087744;54;20073;-77
2021/09/14 06:37:14;;;;;;;14.27;7.47;;;;;;;18.17;70.95;99698.59;1087513;54;20038;-78
2021/09/14 06:38:18;;;;;;;12.63;6.65;;;;;;;18.20;70.61;99698.19;1087513;54;20038;-77
2021/09/14 06:39:23;;;;;;;11.60;7.30;;;;;;;18.17;70.63;99703.16;1087674;54;20042;-77
2021/09/14 06:40:27;;;;;;;11.95;7.18;;;;;;;18.14;70.90;99701.69;1087470;54;20671;-77
2021/09/14 06:41:28;;;;;;;12.23;7.22;;;;;;;18.16;70.98;99707.72;1089580;39;20548;-77
2021/09/14 06:42:33;;;;;;;12.57;7.00;;;;;;;18.18;70.71;99711.06;1087316;54;20050;-78
2021/09/14 06:43:34;;;;;;;13.60;7.53;;;;;;;18.14;70.88;99704.38;1087435;54;20030;-77
2021/09/14 06:44:38;;;;;;;12.63;7.80;;;;;;;18.16;71.04;99704.19;1087491;54;20113;-77
2021/09/14 06:45:40;;;;;;;18.48;7.55;;;;;;;18.21;70.84;99701.72;1087467;54;20038;-77